Time;durP1;ratioP1;P1;durP2;ratioP2;P2;SDS_P1;SDS_P2;PMS_P1;PMS_P2;Temp;Humidity;BMP_temperature;BMP_pressure;BME280_temperature;BME280_humidity;BME280_pressure;Samples;Min_cycle;Max_cycle;Signal;HPM_P1;HPM_P2
2023/07/06 00:00:53;;;;;;;8.95;5.30;;;12.90;99.90;;;;;;5099706;28;20070;-74
2023/07/06 00:03:19;;;;;;;9.88;5.10;;;12.90;99.90;;;;;;5031586;28;20044;-74
2023/07/06 00:05:45;;;;;;;9.20;5.32;;;12.80;99.90;;;;;;5031520;28;20167;-74
2023/07/06 00:08:12;;;;;;;9.23;5.25;;;12.80;99.90;;;;;;5031601;28;20132;-75
2023/07/06 00:10:39;;;;;;;9.75;4.82;;;12.80;99.90;;;;;;5099518;28;20094;-74
2023/07/06 00:13:06;;;;;;;9.57;5.38;;;12.80;99.90;;;;;;5031416;28;20041;-74
2023/07/06 00:15:35;;;;;;;10.05;5.30;;;12.80;99.90;;;;;;5031341;28;20534;-74
2023/07/06 00:18:04;;;;;;;12.52;5.18;;;12.70;99.90;;;;;;5031325;28;20118;-74
2023/07/06 00:20:37;;;;;;;12.25;5.57;;;12.70;99.90;;;;;;5031291;28;20045;-74
2023/07/06 00:23:08;;;;;;;12.27;5.97;;;12.80;99.90;;;;;;5099259;28;20077;-74
2023/07/06 00:25:41;;;;;;;11.43;5.53;;;12.70;99.90;;;;;;5031589;28;20493;-75
2023/07/06 00:28:08;;;;;;;8.90;5.97;;;12.80;99.90;;;;;;5099694;28;20076;-74
2023/07/06 00:33:16;;;;;;;13.85;5.53;;;12.80;99.90;;;;;;5031089;28;20056;-74
2023/07/06 00:35:42;;;;;;;8.43;5.68;;;12.70;99.90;;;;;;5030949;28;20037;-74
2023/07/06 00:38:12;;;;;;;9.65;5.47;;;12.70;99.90;;;;;;5099276;28;20053;-75
2023/07/06 00:40:39;;;;;;;9.88;5.35;;;12.70;99.90;;;;;;5099516;28;20057;-75
2023/07/06 00:43:09;;;;;;;10.15;5.72;;;12.60;99.90;;;;;;5099063;28;20048;-75
2023/07/06 00:45:37;;;;;;;9.57;5.90;;;12.60;99.90;;;;;;5099475;28;20053;-74
2023/07/06 00:48:04;;;;;;;9.98;5.63;;;12.60;99.90;;;;;;5099107;28;20453;-74
2023/07/06 00:50:32;;;;;;;10.73;5.93;;;12.60;99.90;;;;;;5098800;28;20045;-75
2023/07/06 00:53:03;;;;;;;10.35;5.97;;;12.60;99.90;;;;;;5030999;28;20477;-74
2023/07/06 00:55:33;;;;;;;10.55;5.93;;;12.60;99.90;;;;;;5030542;28;20037;-74
2023/07/06 00:58:07;;;;;;;10.95;5.70;;;12.60;99.90;;;;;;5030565;28;20056;-75
2023/07/06 01:00:34;;;;;;;10.07;5.90;;;12.50;99.90;;;;;;5098665;28;20412;-75
2023/07/06 01:03:01;;;;;;;9.13;5.60;;;12.50;99.90;;;;;;5030703;28;20084;-75
2023/07/06 01:05:28;;;;;;;11.65;6.22;;;12.50;99.90;;;;;;5098494;28;20097;-75
2023/07/06 01:08:01;;;;;;;9.20;5.55;;;12.50;99.90;;;;;;5030616;28;20053;-74
2023/07/06 01:10:27;;;;;;;11.20;6.30;;;12.50;99.90;;;;;;5030629;28;20046;-74
2023/07/06 01:12:53;;;;;;;11.85;5.97;;;12.50;99.90;;;;;;5030678;28;20066;-74
2023/07/06 01:15:19;;;;;;;10.95;6.32;;;12.50;99.90;;;;;;5030550;28;20041;-74
2023/07/06 01:18:06;;;;;;;18.23;7.05;;;12.50;99.90;;;;;;5098798;28;20374;-75
2023/07/06 01:20:44;;;;;;;10.15;6.18;;;12.50;99.90;;;;;;5030490;28;20041;-75
2023/07/06 01:23:09;;;;;;;11.30;6.20;;;12.40;99.90;;;;;;5030481;28;20057;-75
2023/07/06 01:25:51;;;;;;;8.80;6.13;;;12.40;99.90;;;;;;5098678;28;20045;-74
2023/07/06 01:28:53;;;;;;;11.10;6.22;;;12.50;99.90;;;;;;5098724;28;20115;-74
2023/07/06 01:31:19;;;;;;;11.38;6.95;;;12.50;99.90;;;;;;5030462;28;20511;-75
2023/07/06 01:34:05;;;;;;;12.32;6.15;;;12.50;99.90;;;;;;5098798;28;20065;-75
2023/07/06 01:36:38;;;;;;;13.93;6.55;;;12.40;99.90;;;;;;5030469;28;20049;-75
2023/07/06 01:39:20;;;;;;;11.95;6.82;;;12.40;99.90;;;;;;5030332;28;20069;-75
2023/07/06 01:41:58;;;;;;;14.55;6.68;;;12.50;99.90;;;;;;5030378;28;20060;-75
2023/07/06 01:44:23;;;;;;;11.60;7.20;;;12.50;99.90;;;;;;5098722;28;20114;-74
2023/07/06 01:46:53;;;;;;;12.30;6.93;;;12.50;99.90;;;;;;5030055;28;20423;-75
2023/07/06 01:49:19;;;;;;;12.00;6.35;;;12.50;99.90;;;;;;5030122;28;20038;-75
2023/07/06 01:52:04;;;;;;;11.18;6.70;;;12.50;99.90;;;;;;5098809;28;20053;-75
2023/07/06 01:54:43;;;;;;;13.02;7.00;;;12.50;99.90;;;;;;5030223;28;20053;-75
2023/07/06 01:57:25;;;;;;;12.27;7.28;;;12.50;99.90;;;;;;5029861;28;20057;-75
2023/07/06 01:59:55;;;;;;;13.27;7.53;;;12.50;99.90;;;;;;5098428;28;20092;-74
2023/07/06 02:02:21;;;;;;;10.73;6.90;;;12.50;99.90;;;;;;5098231;28;20045;-74
2023/07/06 02:04:49;;;;;;;14.25;7.40;;;12.40;99.90;;;;;;5030053;28;20052;-74
2023/07/06 02:07:20;;;;;;;14.25;7.40;;;12.50;99.90;;;;;;5032875;28;20098;-75
2023/07/06 02:09:48;;;;;;;12.73;7.57;;;12.40;99.90;;;;;;5101728;28;20056;-75
2023/07/06 02:12:14;;;;;;;13.13;7.47;;;12.40;99.90;;;;;;5101814;28;20092;-75
2023/07/06 02:14:42;;;;;;;14.77;7.55;;;12.40;99.90;;;;;;5102234;28;20085;-74
2023/07/06 02:17:09;;;;;;;11.60;7.38;;;12.50;99.90;;;;;;5033253;28;20089;-75
2023/07/06 02:19:35;;;;;;;13.10;7.20;;;12.40;99.90;;;;;;5033027;28;20097;-74
2023/07/06 02:22:04;;;;;;;14.23;7.93;;;12.50;99.90;;;;;;5032813;28;20041;-75
2023/07/06 02:24:33;;;;;;;10.50;7.47;;;12.40;99.90;;;;;;5101380;28;20056;-74
2023/07/06 02:26:59;;;;;;;12.65;7.65;;;12.50;99.90;;;;;;5033189;28;20045;-75
2023/07/06 02:29:25;;;;;;;13.32;8.27;;;12.50;99.90;;;;;;5101749;28;20041;-75
2023/07/06 02:31:51;;;;;;;12.23;7.85;;;12.50;99.90;;;;;;5032970;28;20431;-74
2023/07/06 02:34:25;;;;;;;11.20;7.50;;;12.50;99.90;;;;;;5101259;28;20072;-75
2023/07/06 02:36:54;;;;;;;10.57;6.78;;;12.50;99.90;;;;;;5033117;28;20057;-75
2023/07/06 02:39:24;;;;;;;11.55;7.55;;;12.60;99.90;;;;;;5101394;28;20049;-75
2023/07/06 02:41:53;;;;;;;11.07;7.75;;;12.50;99.90;;;;;;5032839;28;20139;-74
2023/07/06 02:44:20;;;;;;;13.48;7.80;;;12.60;99.90;;;;;;5101499;28;20609;-75
2023/07/06 02:46:47;;;;;;;11.65;7.30;;;12.50;99.90;;;;;;5032529;28;20520;-74
2023/07/06 02:49:12;;;;;;;14.48;7.93;;;12.60;99.90;;;;;;5032597;28;20080;-74
2023/07/06 02:51:39;;;;;;;12.38;6.97;;;12.60;99.90;;;;;;5101493;28;20478;-75
2023/07/06 02:54:04;;;;;;;17.30;8.57;;;12.60;99.90;;;;;;5101254;28;20493;-74
2023/07/06 02:56:30;;;;;;;10.38;7.32;;;12.50;99.90;;;;;;5032258;28;20058;-75
2023/07/06 02:58:56;;;;;;;13.15;7.35;;;12.60;99.90;;;;;;5032499;28;20094;-75
2023/07/06 03:01:21;;;;;;;10.18;7.72;;;12.60;99.90;;;;;;5032548;28;20069;-75
2023/07/06 03:03:47;;;;;;;12.63;7.95;;;12.60;99.90;;;;;;5032595;28;20048;-74
2023/07/06 03:06:13;;;;;;;11.57;8.25;;;12.50;99.90;;;;;;5101146;28;20561;-74
2023/07/06 03:08:39;;;;;;;12.93;8.38;;;12.60;99.90;;;;;;5100877;28;20068;-74
2023/07/06 03:11:04;;;;;;;18.23;8.38;;;12.60;99.90;;;;;;5032167;28;20481;-74
2023/07/06 03:13:31;;;;;;;13.10;8.20;;;12.60;99.90;;;;;;5100720;28;20050;-74
2023/07/06 03:15:58;;;;;;;13.10;7.85;;;12.60;99.90;;;;;;5100049;28;20101;-74
2023/07/06 03:18:25;;;;;;;11.63;7.50;;;12.60;99.90;;;;;;5098927;28;20053;-74
2023/07/06 03:20:50;;;;;;;12.30;7.40;;;12.60;99.90;;;;;;5100636;28;20071;-74
2023/07/06 03:23:18;;;;;;;11.57;6.95;;;12.60;99.90;;;;;;5100434;28;20489;-74
2023/07/06 03:25:44;;;;;;;11.50;6.68;;;12.70;99.90;;;;;;5032132;28;20041;-74
2023/07/06 03:28:10;;;;;;;11.55;7.38;;;12.70;99.90;;;;;;5100185;28;20381;-75
2023/07/06 03:30:35;;;;;;;13.85;6.72;;;12.70;99.90;;;;;;5100311;28;20481;-74
2023/07/06 03:33:01;;;;;;;11.10;6.57;;;12.60;99.90;;;;;;5100130;28;20424;-74
2023/07/06 03:35:28;;;;;;;10.55;6.18;;;12.60;99.90;;;;;;5031849;28;20033;-74
2023/07/06 03:37:58;;;;;;;9.77;6.93;;;12.60;99.90;;;;;;5100057;28;20046;-75
2023/07/06 03:40:26;;;;;;;11.98;6.63;;;12.60;99.90;;;;;;5031816;28;20051;-74
2023/07/06 03:42:55;;;;;;;11.85;6.72;;;12.60;99.90;;;;;;5031599;28;20046;-74
2023/07/06 03:45:22;;;;;;;10.00;5.90;;;12.60;99.90;;;;;;5099923;28;20054;-75
2023/07/06 03:47:50;;;;;;;12.35;5.97;;;12.50;99.90;;;;;;5099965;28;20124;-74
2023/07/06 03:50:17;;;;;;;7.50;6.18;;;12.60;99.90;;;;;;5031353;28;20462;-74
2023/07/06 03:52:44;;;;;;;12.05;6.43;;;12.60;99.90;;;;;;5099872;28;20077;-75
2023/07/06 03:55:19;;;;;;;10.48;6.47;;;12.50;99.90;;;;;;5099825;28;20101;-75
2023/07/06 03:57:46;;;;;;;9.60;6.88;;;12.50;99.90;;;;;;5099396;28;20057;-74
2023/07/06 04:00:22;;;;;;;11.20;6.47;;;12.50;99.90;;;;;;5099795;28;20132;-74
2023/07/06 04:02:56;;;;;;;11.40;6.40;;;12.60;99.90;;;;;;5099949;28;20078;-74
2023/07/06 04:05:31;;;;;;;10.73;6.47;;;12.50;99.90;;;;;;5099457;28;20105;-75
2023/07/06 04:08:18;;;;;;;8.75;5.95;;;12.50;99.90;;;;;;5031621;28;20029;-74
2023/07/06 04:10:44;;;;;;;9.38;6.05;;;12.60;99.90;;;;;;5098631;28;20500;-75
2023/07/06 04:13:13;;;;;;;12.82;6.35;;;12.60;99.90;;;;;;5031333;28;20042;-74
2023/07/06 04:15:45;;;;;;;10.63;6.00;;;12.70;99.90;;;;;;5099506;28;20124;-75
2023/07/06 04:18:11;;;;;;;10.50;5.63;;;12.80;99.90;;;;;;5099212;28;20049;-74
2023/07/06 04:20:37;;;;;;;9.30;5.30;;;12.90;99.90;;;;;;5031300;28;20125;-74
2023/07/06 04:23:04;;;;;;;10.32;6.03;;;12.90;99.90;;;;;;5099467;28;20053;-74
2023/07/06 04:25:33;;;;;;;9.98;5.72;;;13.00;99.90;;;;;;5031275;28;20089;-74
2023/07/06 04:28:20;;;;;;;12.35;6.15;;;13.00;99.90;;;;;;5099018;28;20125;-75
2023/07/06 04:30:49;;;;;;;7.47;5.53;;;13.00;99.90;;;;;;5098246;28;20056;-75
2023/07/06 04:33:19;;;;;;;9.68;6.00;;;13.10;99.90;;;;;;5031022;28;20045;-74
2023/07/06 04:35:51;;;;;;;10.07;5.80;;;13.00;99.90;;;;;;5098977;28;20080;-74
2023/07/06 04:38:17;;;;;;;9.50;6.28;;;13.00;99.90;;;;;;5099018;28;20041;-74
2023/07/06 04:40:43;;;;;;;9.88;5.20;;;13.00;99.90;;;;;;5098827;28;20055;-74
2023/07/06 04:43:11;;;;;;;9.32;5.95;;;13.00;99.90;;;;;;5098982;28;20124;-74
2023/07/06 04:45:37;;;;;;;11.50;6.10;;;13.10;99.90;;;;;;5030868;28;20042;-74
2023/07/06 04:48:05;;;;;;;8.38;6.28;;;13.10;99.90;;;;;;5098781;28;20129;-74
2023/07/06 04:50:31;;;;;;;9.70;6.35;;;13.20;99.90;;;;;;5098835;28;20407;-74
2023/07/06 04:53:00;;;;;;;15.75;6.78;;;13.30;99.90;;;;;;5030861;28;20038;-75
2023/07/06 04:55:28;;;;;;;10.98;6.32;;;13.30;99.90;;;;;;5030663;28;20117;-74
2023/07/06 04:57:56;;;;;;;11.68;6.93;;;13.40;99.90;;;;;;5030288;28;20058;-74
2023/07/06 05:00:26;;;;;;;9.98;7.15;;;13.50;99.90;;;;;;5098730;28;20042;-74
2023/07/06 05:02:52;;;;;;;10.95;6.55;;;13.60;99.90;;;;;;5030646;28;20053;-74
2023/07/06 05:05:19;;;;;;;14.52;7.35;;;13.70;99.90;;;;;;5030363;28;20391;-74
2023/07/06 05:07:48;;;;;;;10.63;7.07;;;13.80;99.90;;;;;;5098621;28;20056;-74
2023/07/06 05:10:15;;;;;;;12.52;7.40;;;13.90;99.90;;;;;;5030431;28;20052;-74
2023/07/06 05:12:41;;;;;;;12.73;7.55;;;13.90;99.90;;;;;;5098990;28;20179;-74
2023/07/06 05:15:07;;;;;;;12.48;7.07;;;14.10;99.90;;;;;;5098439;28;20052;-74
2023/07/06 05:17:33;;;;;;;9.82;7.10;;;14.10;99.90;;;;;;5030516;28;20045;-74
2023/07/06 05:19:59;;;;;;;17.38;7.80;;;14.30;99.90;;;;;;5030363;28;20053;-74
2023/07/06 05:22:26;;;;;;;12.15;7.53;;;14.40;99.90;;;;;;5098695;28;20517;-74
2023/07/06 05:24:52;;;;;;;14.32;7.65;;;14.50;99.90;;;;;;5030169;28;20130;-74
2023/07/06 05:27:19;;;;;;;14.10;7.28;;;14.60;99.90;;;;;;5030394;28;20116;-74
2023/07/06 05:29:45;;;;;;;11.23;7.35;;;14.70;99.90;;;;;;5030039;28;20053;-74
2023/07/06 05:32:10;;;;;;;16.13;8.18;;;14.70;99.90;;;;;;5030404;28;20060;-74
2023/07/06 05:34:36;;;;;;;11.25;7.38;;;14.80;99.90;;;;;;5098419;28;20037;-75
2023/07/06 05:37:02;;;;;;;12.73;7.25;;;14.90;99.90;;;;;;5098312;28;20051;-75
2023/07/06 05:39:29;;;;;;;13.82;7.05;;;15.10;99.90;;;;;;5030183;28;20037;-74
2023/07/06 05:41:55;;;;;;;16.58;7.43;;;15.10;99.90;;;;;;5101324;28;20042;-74
2023/07/06 05:44:20;;;;;;;13.07;7.80;;;15.10;99.90;;;;;;5033782;28;20045;-74
2023/07/06 05:46:46;;;;;;;16.83;7.55;;;15.20;99.90;;;;;;5033688;28;20120;-74
2023/07/06 05:49:12;;;;;;;13.63;7.95;;;15.30;99.90;;;;;;5102319;28;20045;-74
2023/07/06 05:51:37;;;;;;;11.95;7.75;;;15.40;99.90;;;;;;5102426;28;20388;-74
2023/07/06 05:54:03;;;;;;;12.57;7.57;;;15.50;99.90;;;;;;5033344;28;20124;-75
2023/07/06 05:56:32;;;;;;;14.73;8.30;;;15.70;99.90;;;;;;5033183;28;20114;-75
2023/07/06 05:59:01;;;;;;;12.48;7.40;;;15.80;99.90;;;;;;5033596;28;20080;-74
2023/07/06 06:01:29;;;;;;;14.55;7.85;;;16.00;99.90;;;;;;5033478;28;20535;-74
2023/07/06 06:03:55;;;;;;;15.98;8.43;;;16.20;99.90;;;;;;5033243;28;20045;-75
2023/07/06 06:06:21;;;;;;;13.90;8.18;;;16.30;99.90;;;;;;5033025;28;20042;-75
2023/07/06 06:08:48;;;;;;;15.00;7.80;;;16.40;99.90;;;;;;5033087;28;20550;-75
2023/07/06 06:11:15;;;;;;;12.07;7.70;;;16.50;99.90;;;;;;5033375;28;20041;-75
2023/07/06 06:13:43;;;;;;;11.27;7.60;;;16.70;99.90;;;;;;5033135;28;20128;-75
2023/07/06 06:16:12;;;;;;;11.80;7.25;;;16.80;99.90;;;;;;5101824;28;20091;-74
2023/07/06 06:18:39;;;;;;;12.20;7.22;;;17.00;99.90;;;;;;5033259;28;20077;-74
2023/07/06 06:21:08;;;;;;;16.27;7.05;;;17.10;99.90;;;;;;5032858;28;20042;-74
2023/07/06 06:23:34;;;;;;;12.25;7.47;;;17.20;99.90;;;;;;5033131;28;20046;-74
2023/07/06 06:26:00;;;;;;;16.80;7.63;;;17.30;99.90;;;;;;5101428;28;20050;-75
2023/07/06 06:28:26;;;;;;;13.93;7.60;;;17.30;99.90;;;;;;5033033;28;20061;-75
2023/07/06 06:30:53;;;;;;;12.75;6.88;;;17.60;99.90;;;;;;5032864;28;20057;-74
2023/07/06 06:33:18;;;;;;;10.57;6.47;;;17.80;99.90;;;;;;5101270;28;20052;-75
2023/07/06 06:35:44;;;;;;;14.95;6.63;;;17.90;99.90;;;;;;5032692;28;20124;-75
2023/07/06 06:38:11;;;;;;;12.43;7.32;;;18.00;99.90;;;;;;5101453;28;20067;-74
2023/07/06 06:40:39;;;;;;;13.18;6.80;;;18.10;99.90;;;;;;5025888;28;20034;-74
2023/07/06 06:43:05;;;;;;;10.27;5.85;;;18.10;99.90;;;;;;5082592;28;20394;-74
2023/07/06 06:45:31;;;;;;;12.68;5.80;;;18.30;99.90;;;;;;5080904;28;20056;-76
2023/07/06 06:47:57;;;;;;;9.60;6.05;;;18.50;99.90;;;;;;5080509;28;20107;-74
2023/07/06 06:50:23;;;;;;;11.45;6.00;;;18.60;99.90;;;;;;5012424;28;20042;-75
2023/07/06 06:52:50;;;;;;;10.32;4.95;;;18.80;99.90;;;;;;5080278;28;20046;-74
2023/07/06 06:55:16;;;;;;;12.90;5.55;;;19.00;99.90;;;;;;5080644;28;20050;-74
2023/07/06 06:57:42;;;;;;;10.05;5.00;;;19.00;99.90;;;;;;5020687;28;20049;-74
2023/07/06 07:00:16;;;;;;;12.13;4.90;;;19.00;99.90;;;;;;5029714;28;20109;-74
2023/07/06 07:02:43;;;;;;;10.13;4.72;;;19.20;99.90;;;;;;5100325;28;20046;-74
2023/07/06 07:05:10;;;;;;;9.35;4.25;;;19.20;99.90;;;;;;5100666;28;20167;-74
2023/07/06 07:07:39;;;;;;;9.38;4.55;;;19.30;99.90;;;;;;5100380;28;20392;-73
2023/07/06 07:10:09;;;;;;;7.57;3.90;;;19.50;99.90;;;;;;5031849;28;20509;-74
2023/07/06 07:12:40;;;;;;;7.80;3.85;;;19.60;99.90;;;;;;5100533;28;20046;-77
2023/07/06 07:15:09;;;;;;;11.52;4.75;;;19.80;99.90;;;;;;5100638;28;20049;-73
2023/07/06 07:17:35;;;;;;;11.27;4.75;;;19.70;99.90;;;;;;5100163;28;20489;-74
2023/07/06 07:20:01;;;;;;;6.40;4.10;;;19.80;99.90;;;;;;5100148;28;20132;-74
2023/07/06 07:22:27;;;;;;;13.13;3.95;;;20.00;99.90;;;;;;5031724;28;20183;-74
2023/07/06 07:24:53;;;;;;;6.97;3.10;;;20.10;99.90;;;;;;5100246;28;20501;-74
2023/07/06 07:27:19;;;;;;;10.80;3.95;;;20.20;99.90;;;;;;5100452;28;20056;-74
2023/07/06 07:29:46;;;;;;;9.50;4.00;;;20.20;99.90;;;;;;5099696;28;20049;-74
2023/07/06 07:32:11;;;;;;;7.82;3.83;;;20.20;99.90;;;;;;5031636;28;20102;-74
2023/07/06 07:34:37;;;;;;;8.20;4.00;;;20.50;99.90;;;;;;5099969;28;20046;-74
2023/07/06 07:37:03;;;;;;;8.27;3.42;;;20.60;99.90;;;;;;5031755;28;20041;-74
2023/07/06 07:39:30;;;;;;;6.80;3.58;;;20.70;99.90;;;;;;5031666;28;20041;-75
2023/07/06 07:41:56;;;;;;;6.68;3.05;;;20.70;99.90;;;;;;5099930;28;20053;-74
2023/07/06 07:44:21;;;;;;;8.00;3.55;;;20.30;99.90;;;;;;5099574;28;20132;-77
2023/07/06 07:46:47;;;;;;;9.15;3.65;;;20.20;99.90;;;;;;5099878;28;20058;-74
2023/07/06 07:49:12;;;;;;;7.22;3.22;;;20.10;99.90;;;;;;5100087;28;20094;-74
2023/07/06 07:51:39;;;;;;;8.43;3.38;;;19.90;99.90;;;;;;5099535;28;20045;-74
2023/07/06 07:54:04;;;;;;;8.00;2.50;;;19.80;99.90;;;;;;5031705;28;20098;-74
2023/07/06 07:56:30;;;;;;;3.85;1.80;;;20.00;99.90;;;;;;5031081;28;20057;-74
2023/07/06 07:58:56;;;;;;;3.95;1.27;;;20.00;99.90;;;;;;5030987;28;20046;-74
2023/07/06 08:01:24;;;;;;;2.20;1.20;;;19.80;99.90;;;;;;5031528;28;20045;-74
2023/07/06 08:03:52;;;;;;;4.45;1.50;;;20.00;99.90;;;;;;5099214;28;20048;-74
2023/07/06 08:06:19;;;;;;;3.50;1.50;;;20.10;99.90;;;;;;5031568;28;20077;-74
2023/07/06 08:08:47;;;;;;;5.68;1.88;;;20.20;99.90;;;;;;5099300;28;20097;-74
2023/07/06 08:11:16;;;;;;;2.75;1.23;;;20.10;99.90;;;;;;5099062;28;20065;-74
2023/07/06 08:13:45;;;;;;;3.95;1.45;;;19.90;99.90;;;;;;5099241;28;20064;-75
2023/07/06 08:16:12;;;;;;;2.75;0.93;;;20.10;99.90;;;;;;5099490;28;20060;-75
2023/07/06 08:18:41;;;;;;;4.20;1.13;;;20.20;99.90;;;;;;5031102;28;20041;-75
2023/07/06 08:21:08;;;;;;;3.20;1.13;;;20.40;99.90;;;;;;5099171;28;20038;-75
2023/07/06 08:23:34;;;;;;;2.47;1.05;;;20.50;99.90;;;;;;5099045;28;20132;-74
2023/07/06 08:26:03;;;;;;;3.83;1.00;;;20.50;99.90;;;;;;5030988;28;20174;-74
2023/07/06 08:28:31;;;;;;;5.05;1.15;;;20.30;99.90;;;;;;5099175;28;20085;-74
2023/07/06 08:31:03;;;;;;;1.48;0.95;;;20.30;99.90;;;;;;5098894;28;20056;-74
2023/07/06 08:33:35;;;;;;;2.20;1.10;;;20.20;99.90;;;;;;5099161;28;20068;-75
2023/07/06 08:36:06;;;;;;;2.40;0.93;;;20.00;99.90;;;;;;5098977;28;20053;-75
2023/07/06 08:38:33;;;;;;;3.53;1.00;;;19.60;99.90;;;;;;5099069;28;20049;-74
2023/07/06 08:41:03;;;;;;;2.80;1.42;;;19.50;99.90;;;;;;5099098;28;20076;-74
2023/07/06 08:43:31;;;;;;;3.40;1.02;;;19.50;99.90;;;;;;5099107;28;20046;-75
2023/07/06 08:46:03;;;;;;;4.88;1.25;;;19.30;99.90;;;;;;5030832;28;20094;-74
2023/07/06 08:48:32;;;;;;;5.68;1.65;;;19.30;99.90;;;;;;5099132;28;20049;-74
2023/07/06 08:51:08;;;;;;;4.65;1.50;;;19.40;99.90;;;;;;5098379;28;20060;-74
2023/07/06 08:53:34;;;;;;;6.53;1.73;;;19.80;99.90;;;;;;5030761;28;20116;-74
2023/07/06 08:56:05;;;;;;;3.83;1.52;;;19.90;99.90;;;;;;5098499;28;20473;-74
2023/07/06 08:58:33;;;;;;;5.85;1.40;;;20.20;99.90;;;;;;5098879;28;20157;-74
2023/07/06 09:01:06;;;;;;;2.92;1.30;;;20.30;99.90;;;;;;5098858;28;20073;-74
2023/07/06 09:03:35;;;;;;;;;;;20.20;99.90;;;;;;5098986;28;20102;-74
2023/07/06 09:06:04;;;;;;;3.53;1.20;;;20.30;99.90;;;;;;5030545;28;20021;-74
2023/07/06 09:08:30;;;;;;;4.43;1.30;;;20.10;99.90;;;;;;5098804;28;20037;-74
2023/07/06 09:10:55;;;;;;;2.78;1.25;;;19.90;99.90;;;;;;5098313;28;20050;-74
2023/07/06 09:13:27;;;;;;;2.92;1.30;;;20.00;99.90;;;;;;5030237;28;20129;-74
2023/07/06 09:16:00;;;;;;;4.65;1.30;;;19.90;99.90;;;;;;5031172;28;20049;-74
2023/07/06 09:18:29;;;;;;;4.43;1.38;;;20.10;99.90;;;;;;5102680;28;20117;-74
2023/07/06 09:20:57;;;;;;;4.35;1.30;;;20.20;99.90;;;;;;5033631;28;20443;-88
2023/07/06 09:23:24;;;;;;;3.10;1.40;;;20.30;99.90;;;;;;5033584;28;20373;-89
2023/07/06 09:25:50;;;;;;;4.03;1.08;;;20.60;99.90;;;;;;5102619;28;20129;-87
2023/07/06 09:28:34;;;;;;;2.78;1.20;;;20.70;99.90;;;;;;5102665;28;20079;-88
2023/07/06 09:31:14;;;;;;;3.88;1.30;;;20.80;99.90;;;;;;5033780;28;20041;-89
2023/07/06 09:33:48;;;;;;;3.35;1.15;;;20.90;99.90;;;;;;5102630;28;20046;-74
2023/07/06 09:36:23;;;;;;;6.63;1.25;;;21.00;99.90;;;;;;5033855;28;20077;-73
2023/07/06 09:38:50;;;;;;;4.38;1.33;;;21.00;99.90;;;;;;5033524;28;20037;-74
2023/07/06 09:41:23;;;;;;;3.78;1.40;;;21.10;99.90;;;;;;5033665;28;20051;-74
2023/07/06 09:43:57;;;;;;;3.95;1.38;;;21.00;99.90;;;;;;5033193;28;20486;-74
2023/07/06 09:46:26;;;;;;;3.00;1.13;;;21.20;99.90;;;;;;5101956;28;20049;-74
2023/07/06 09:48:52;;;;;;;2.88;1.40;;;21.10;99.90;;;;;;5102265;28;20118;-74
2023/07/06 09:51:25;;;;;;;2.95;1.17;;;21.10;99.90;;;;;;5033010;28;20110;-74
2023/07/06 09:53:53;;;;;;;4.63;1.20;;;21.30;99.90;;;;;;5033065;28;20470;-74
2023/07/06 09:56:19;;;;;;;8.10;1.55;;;21.30;99.90;;;;;;5033061;28;20069;-74
2023/07/06 09:58:46;;;;;;;4.88;1.20;;;21.30;99.90;;;;;;5101851;28;20052;-74
2023/07/06 10:01:22;;;;;;;4.07;1.30;;;21.30;99.90;;;;;;5033049;28;20094;-74
2023/07/06 10:04:03;;;;;;;5.68;1.63;;;20.90;99.90;;;;;;5101835;28;20052;-74
2023/07/06 10:07:01;;;;;;;4.72;1.40;;;20.90;99.90;;;;;;5033054;28;20489;-74
2023/07/06 10:09:38;;;;;;;5.10;1.35;;;20.70;99.90;;;;;;5101472;28;20041;-74
2023/07/06 10:12:38;;;;;;;3.42;1.50;;;20.50;99.90;;;;;;5101789;28;20053;-74
2023/07/06 10:15:13;;;;;;;4.57;1.52;;;20.70;99.90;;;;;;5101978;28;20118;-74
2023/07/06 10:17:47;;;;;;;3.00;1.10;;;20.80;99.90;;;;;;5101610;28;20111;-74
2023/07/06 10:20:36;;;;;;;4.70;1.35;;;21.00;99.90;;;;;;5101373;28;20081;-74
2023/07/06 10:23:34;;;;;;;6.20;1.70;;;21.00;99.90;;;;;;5101366;28;20061;-74
2023/07/06 10:26:26;;;;;;;7.95;1.50;;;20.90;99.90;;;;;;5100738;28;20062;-73
2023/07/06 10:28:59;;;;;;;4.57;1.60;;;20.70;99.90;;;;;;5032819;28;20057;-74
2023/07/06 10:31:41;;;;;;;5.65;1.65;;;20.60;99.90;;;;;;5101138;28;20126;-74
2023/07/06 10:34:32;;;;;;;3.35;1.45;;;20.70;99.90;;;;;;5101285;28;20045;-74
2023/07/06 10:37:02;;;;;;;3.17;1.77;;;20.80;99.90;;;;;;5100996;28;20416;-74
2023/07/06 10:39:28;;;;;;;3.00;1.45;;;21.00;99.90;;;;;;5101575;28;20077;-74
2023/07/06 10:42:09;;;;;;;3.10;1.70;;;21.20;99.90;;;;;;5100920;28;20073;-73
2023/07/06 10:44:40;;;;;;;4.03;1.73;;;21.50;99.90;;;;;;5101312;28;20049;-74
2023/07/06 10:47:07;;;;;;;4.50;1.73;;;21.70;99.90;;;;;;5100933;28;20057;-73
2023/07/06 10:50:05;;;;;;;3.65;1.20;;;21.70;99.90;;;;;;5100959;28;20046;-73
2023/07/06 10:53:13;;;;;;;4.45;1.75;;;21.80;99.90;;;;;;5100988;28;20408;-73
2023/07/06 10:55:39;;;;;;;6.22;1.42;;;21.70;99.90;;;;;;5083278;28;20049;-75
2023/07/06 10:58:21;;;;;;;2.70;1.33;;;21.70;99.90;;;;;;5100839;28;20061;-74
2023/07/06 11:00:48;;;;;;;4.57;1.52;;;21.90;99.90;;;;;;5100965;28;20493;-73
2023/07/06 11:03:23;;;;;;;2.92;1.27;;;22.00;99.90;;;;;;5100794;28;20042;-74
2023/07/06 11:05:54;;;;;;;4.53;1.35;;;22.10;99.90;;;;;;5100877;28;20085;-74
2023/07/06 11:08:58;;;;;;;4.32;1.63;;;21.80;99.90;;;;;;5032231;28;20515;-73
2023/07/06 11:11:26;;;;;;;;;;;21.30;99.90;;;;;;5100867;28;20049;-73
2023/07/06 11:13:53;;;;;;;3.17;1.65;;;21.10;99.90;;;;;;5100887;28;19925;-74
2023/07/06 11:16:41;;;;;;;2.65;1.35;;;21.10;99.90;;;;;;5100661;28;20494;-74
2023/07/06 11:19:16;;;;;;;4.78;1.52;;;21.20;99.90;;;;;;5100584;28;20053;-74
2023/07/06 11:21:50;;;;;;;2.85;1.25;;;21.30;99.90;;;;;;5100586;28;20049;-74
2023/07/06 11:24:21;;;;;;;3.97;1.40;;;21.20;99.90;;;;;;5032148;28;20366;-74
2023/07/06 11:26:56;;;;;;;3.17;1.05;;;21.00;99.90;;;;;;5100516;28;20142;-74
2023/07/06 11:29:28;;;;;;;5.13;1.35;;;21.00;99.90;;;;;;5100539;28;20057;-74
2023/07/06 11:32:00;;;;;;;4.18;1.30;;;21.20;99.90;;;;;;5100834;28;20042;-74
2023/07/06 11:34:54;;;;;;;4.80;1.30;;;21.60;99.90;;;;;;5100362;28;20061;-74
2023/07/06 11:37:41;;;;;;;4.80;1.25;;;21.60;99.90;;;;;;5100251;28;20050;-74
2023/07/06 11:40:30;;;;;;;3.25;1.55;;;21.70;99.90;;;;;;5099883;28;20058;-74
2023/07/06 11:43:02;;;;;;;2.78;1.10;;;21.60;99.90;;;;;;5099985;28;20045;-76
2023/07/06 11:45:39;;;;;;;4.03;1.23;;;21.70;99.90;;;;;;5099977;28;20081;-73
2023/07/06 11:48:20;;;;;;;4.32;1.30;;;21.70;99.90;;;;;;5100136;28;20080;-74
2023/07/06 11:50:46;;;;;;;3.53;1.02;;;21.70;99.90;;;;;;5099942;28;20106;-74
2023/07/06 11:53:29;;;;;;;2.40;1.00;;;21.30;99.90;;;;;;5100110;28;20541;-74
2023/07/06 11:56:08;;;;;;;3.17;1.00;;;21.20;99.90;;;;;;5099711;28;20101;-74
2023/07/06 11:58:53;;;;;;;2.92;1.23;;;21.20;99.90;;;;;;5099737;28;20085;-74
2023/07/06 12:04:22;;;;;;;3.95;1.40;;;21.40;99.90;;;;;;4987298;28;20067;-75
2023/07/06 12:06:48;;;;;;;4.90;1.50;;;21.30;99.90;;;;;;5099566;28;20128;-75
2023/07/06 12:09:20;;;;;;;4.63;1.67;;;21.50;99.90;;;;;;5099386;28;20046;-75
2023/07/06 12:11:58;;;;;;;4.30;1.50;;;21.60;99.90;;;;;;5099538;28;20049;-76
2023/07/06 12:14:24;;;;;;;3.40;1.30;;;21.40;99.90;;;;;;5099572;28;20129;-75
2023/07/06 12:16:51;;;;;;;5.30;1.58;;;21.40;99.90;;;;;;5099473;28;20132;-72
2023/07/06 12:19:17;;;;;;;4.35;1.42;;;21.30;99.90;;;;;;5099501;28;20056;-74
2023/07/06 12:21:55;;;;;;;2.63;1.35;;;21.30;99.90;;;;;;5099433;28;20497;-74
2023/07/06 12:24:26;;;;;;;5.55;1.42;;;21.50;99.90;;;;;;5099515;28;20086;-74
2023/07/06 12:27:01;;;;;;;4.25;1.50;;;21.70;99.90;;;;;;5099292;28;20405;-74
2023/07/06 12:29:31;;;;;;;5.60;1.75;;;22.00;99.90;;;;;;5031254;28;20048;-74
2023/07/06 12:32:21;;;;;;;5.75;1.50;;;22.30;99.90;;;;;;5099582;28;20145;-74
2023/07/06 12:34:50;;;;;;;4.22;1.10;;;22.20;99.90;;;;;;5099381;28;20037;-74
2023/07/06 12:37:19;;;;;;;4.85;1.60;;;22.00;99.90;;;;;;5099020;28;20128;-74
2023/07/06 12:39:47;;;;;;;3.17;1.55;;;22.00;99.90;;;;;;5098978;28;20124;-74
2023/07/06 12:42:15;;;;;;;2.92;1.15;;;22.10;99.90;;;;;;5099219;28;20471;-74
2023/07/06 12:44:43;;;;;;;3.63;1.02;;;22.20;99.90;;;;;;5099034;28;20079;-74
2023/07/06 12:47:37;;;;;;;6.47;1.40;;;22.20;99.90;;;;;;5099029;28;20053;-74
2023/07/06 12:50:19;;;;;;;3.83;1.67;;;22.30;99.90;;;;;;5030465;28;20046;-74
2023/07/06 12:52:45;;;;;;;3.88;1.50;;;22.50;99.90;;;;;;5098916;28;20085;-74
2023/07/06 12:55:16;;;;;;;3.45;1.48;;;22.40;99.90;;;;;;5099237;28;20037;-74
2023/07/06 12:57:43;;;;;;;3.08;1.30;;;22.50;99.90;;;;;;5030426;28;20058;-74
2023/07/06 13:00:21;;;;;;;3.85;1.50;;;22.70;99.90;;;;;;5098806;28;20087;-74
2023/07/06 13:02:55;;;;;;;5.00;2.00;;;22.70;99.90;;;;;;5098834;28;20485;-74
2023/07/06 13:05:27;;;;;;;5.53;1.80;;;22.80;99.90;;;;;;5099012;28;20053;-75